Glenville, Connecticut
Current Conditions -  °F | °C
As of 6:56 PM on Friday 19 Dec 2014 (Local Time) from KHPN Reporting Station
Broken Clouds Broken Clouds  
Wind Chill: 24°   Ceiling: 3100
Heat Index: 32°   Visibility: 10mi
Dew Point: 20°   Wind: 10mph
Humidity: 61%   Direction: 300°WNW
Pressure: 30.11"   Gusts: NA
Location:  41.0864°N, 73.6612°W
Report Text: KHPN 192356Z 30009KT 10SM BKN031 00/M07 A3011 RMK AO2 SLP203 T00001067 10028 20000 53026
Loading
Personal Weather Stations






























Interactive Weather Map New forecast layout! Learn more

10-Day Weather Forecast

Advertisements
Track Severe Weather on mobile